Time;durP1;ratioP1;P1;durP2;ratioP2;P2;SDS_P1;SDS_P2;PMS_P1;PMS_P2;Temp;Humidity;BMP_temperature;BMP_pressure;BME280_temperature;BME280_humidity;BME280_pressure;Samples;Min_cycle;Max_cycle;Signal;HPM_P1;HPM_P2
2021/07/30 00:01:48;;;;;;;6.60;6.00;;;20.50;99.90;;;;;;4996087;28;20192;-52
2021/07/30 00:04:14;;;;;;;6.93;5.97;;;20.40;99.90;;;;;;4996852;28;20272;-54
2021/07/30 00:06:39;;;;;;;6.70;6.00;;;20.40;99.90;;;;;;4996062;28;20313;-54
2021/07/30 00:09:05;;;;;;;7.37;6.10;;;20.40;99.90;;;;;;4996137;28;20193;-56
2021/07/30 00:11:31;;;;;;;7.67;5.40;;;20.30;99.90;;;;;;4995855;28;20192;-56
2021/07/30 00:13:56;;;;;;;6.80;5.80;;;20.30;99.90;;;;;;4995811;28;20732;-57
2021/07/30 00:16:22;;;;;;;8.17;5.70;;;20.20;99.90;;;;;;4996149;28;20184;-53
2021/07/30 00:18:47;;;;;;;5.87;5.37;;;20.20;99.90;;;;;;4995886;28;20185;-58
2021/07/30 00:21:13;;;;;;;6.80;6.13;;;20.10;99.90;;;;;;4996371;28;20264;-59
2021/07/30 00:23:38;;;;;;;7.97;6.50;;;20.20;99.90;;;;;;4995529;28;20212;-59
2021/07/30 00:26:04;;;;;;;7.10;6.40;;;20.10;99.90;;;;;;4996077;28;20181;-59
2021/07/30 00:28:29;;;;;;;6.40;5.80;;;20.00;99.90;;;;;;4995606;28;20537;-59
2021/07/30 00:30:55;;;;;;;7.67;5.93;;;20.00;99.90;;;;;;4996283;28;20640;-60
2021/07/30 00:33:20;;;;;;;8.13;6.50;;;20.00;99.90;;;;;;4995651;28;20229;-56
2021/07/30 00:35:46;;;;;;;7.00;6.40;;;20.00;99.90;;;;;;4996247;28;20334;-54
2021/07/30 00:38:11;;;;;;;6.70;5.97;;;20.00;99.90;;;;;;4995223;28;20201;-55
2021/07/30 00:40:37;;;;;;;7.77;6.37;;;20.00;99.90;;;;;;4995635;28;20618;-51
2021/07/30 00:43:06;;;;;;;6.60;5.80;;;19.90;99.90;;;;;;4995462;28;20207;-54
2021/07/30 00:45:32;;;;;;;7.03;6.07;;;19.90;99.90;;;;;;4996203;28;20189;-59
2021/07/30 00:47:58;;;;;;;6.50;5.90;;;19.80;99.90;;;;;;4995847;28;20197;-56
2021/07/30 00:50:24;;;;;;;7.33;5.73;;;19.70;99.90;;;;;;4996044;28;20173;-56
2021/07/30 00:52:51;;;;;;;6.63;5.73;;;19.70;99.90;;;;;;4994880;28;20213;-54
2021/07/30 00:55:18;;;;;;;6.93;5.63;;;19.70;99.90;;;;;;4995491;28;20688;-53
2021/07/30 00:57:44;;;;;;;6.10;5.50;;;19.70;99.90;;;;;;4995348;28;20200;-59
2021/07/30 01:00:10;;;;;;;6.73;6.00;;;19.60;99.90;;;;;;4995439;28;20641;-59
2021/07/30 01:02:36;;;;;;;6.60;6.00;;;19.60;99.90;;;;;;4995237;28;20252;-58
2021/07/30 01:05:02;;;;;;;7.37;6.67;;;19.60;99.90;;;;;;4995106;28;20232;-53
2021/07/30 01:07:28;;;;;;;7.17;6.47;;;19.60;99.90;;;;;;4995056;28;20173;-57
2021/07/30 01:09:54;;;;;;;8.37;6.70;;;19.50;99.90;;;;;;4994858;28;20288;-52
2021/07/30 01:12:20;;;;;;;7.93;6.00;;;19.50;99.90;;;;;;4994832;28;20264;-59
2021/07/30 01:14:45;;;;;;;6.73;6.13;;;19.50;99.90;;;;;;4995259;28;20349;-54
2021/07/30 01:17:11;;;;;;;7.20;6.20;;;19.50;99.90;;;;;;4994965;28;20177;-56
2021/07/30 01:19:36;;;;;;;7.27;6.57;;;19.40;99.90;;;;;;4994580;28;20193;-55
2021/07/30 01:22:17;;;;;;;6.23;5.63;;;19.40;99.90;;;;;;4994737;28;20267;-54
2021/07/30 01:24:43;;;;;;;7.23;5.70;;;19.40;99.90;;;;;;4994936;28;20208;-54
2021/07/30 01:27:08;;;;;;;6.70;6.00;;;19.40;99.90;;;;;;4995047;28;20178;-54
2021/07/30 01:29:34;;;;;;;6.77;6.07;;;19.30;99.90;;;;;;4994754;28;20303;-53
2021/07/30 01:31:59;;;;;;;6.47;5.83;;;19.30;99.90;;;;;;4994413;28;20276;-53
2021/07/30 01:34:25;;;;;;;7.17;6.17;;;19.30;99.90;;;;;;4994601;28;20213;-58
2021/07/30 01:36:51;;;;;;;6.73;6.03;;;19.30;99.90;;;;;;4994657;28;20188;-56
2021/07/30 01:39:16;;;;;;;7.20;6.50;;;19.30;99.90;;;;;;4994893;28;20173;-54
2021/07/30 01:41:42;;;;;;;7.03;6.27;;;19.20;99.90;;;;;;4994330;28;20178;-57
2021/07/30 01:44:07;;;;;;;6.13;5.53;;;19.20;99.90;;;;;;4994360;28;20538;-57
2021/07/30 01:46:33;;;;;;;6.47;5.87;;;19.20;99.90;;;;;;4995119;28;20617;-56
2021/07/30 01:48:58;;;;;;;6.83;6.13;;;19.20;99.90;;;;;;4994136;28;20686;-57
2021/07/30 01:51:24;;;;;;;7.10;6.40;;;19.20;99.90;;;;;;4994337;28;20181;-59
2021/07/30 01:53:49;;;;;;;7.33;6.17;;;19.20;99.90;;;;;;4994601;28;20208;-59
2021/07/30 01:56:15;;;;;;;6.60;5.80;;;19.20;99.90;;;;;;4994419;28;20176;-53
2021/07/30 01:58:40;;;;;;;7.10;6.40;;;19.20;99.90;;;;;;4994066;28;20254;-53
2021/07/30 02:01:06;;;;;;;6.67;5.93;;;19.20;99.90;;;;;;4994933;28;20199;-57
2021/07/30 02:03:31;;;;;;;6.40;5.83;;;19.10;99.90;;;;;;4994633;28;20204;-51
2021/07/30 02:05:57;;;;;;;7.93;5.90;;;19.10;99.90;;;;;;4994468;28;20209;-54
2021/07/30 02:08:22;;;;;;;6.67;5.87;;;19.10;99.90;;;;;;4994365;28;20204;-58
2021/07/30 02:10:48;;;;;;;8.47;6.20;;;19.00;99.90;;;;;;4994318;28;20234;-58
2021/07/30 02:15:57;;;;;;;6.67;6.00;;;19.00;99.90;;;;;;4994435;28;20230;-51
2021/07/30 02:18:23;;;;;;;6.90;6.20;;;19.10;99.90;;;;;;4994162;28;20192;-55
2021/07/30 02:20:48;;;;;;;6.17;5.57;;;19.00;99.90;;;;;;4994475;28;20185;-55
2021/07/30 02:23:14;;;;;;;7.93;5.77;;;19.00;99.90;;;;;;4993799;28;20192;-57
2021/07/30 02:25:40;;;;;;;7.03;6.20;;;19.00;99.90;;;;;;4994712;28;20537;-55
2021/07/30 02:28:05;;;;;;;6.80;6.10;;;19.00;99.90;;;;;;4994020;28;20174;-59
2021/07/30 02:30:31;;;;;;;6.83;6.20;;;18.90;99.90;;;;;;4994124;28;20184;-55
2021/07/30 02:32:56;;;;;;;6.20;5.60;;;18.90;99.90;;;;;;4993967;28;20715;-55
2021/07/30 02:35:22;;;;;;;7.60;6.07;;;18.90;99.90;;;;;;4993800;28;20203;-55
2021/07/30 02:37:47;;;;;;;6.37;5.77;;;18.90;99.90;;;;;;4994246;28;20187;-57
2021/07/30 02:40:13;;;;;;;8.47;5.40;;;18.80;99.90;;;;;;4993930;28;20667;-56
2021/07/30 02:42:39;;;;;;;7.47;5.63;;;18.90;99.90;;;;;;4993684;28;20208;-57
2021/07/30 02:45:05;;;;;;;5.87;5.33;;;18.80;99.90;;;;;;4993376;28;20180;-59
2021/07/30 02:47:30;;;;;;;5.57;5.07;;;18.80;99.90;;;;;;4993651;28;20207;-51
2021/07/30 02:49:56;;;;;;;5.73;5.20;;;18.70;99.90;;;;;;4994014;28;20177;-51
2021/07/30 02:52:21;;;;;;;7.00;5.37;;;18.70;99.90;;;;;;4993474;28;20224;-53
2021/07/30 02:54:47;;;;;;;6.20;5.60;;;18.70;99.90;;;;;;4994299;28;20209;-54
2021/07/30 02:57:12;;;;;;;7.17;5.80;;;18.70;99.90;;;;;;4994280;28;20558;-54
2021/07/30 02:59:38;;;;;;;9.77;5.90;;;18.70;99.90;;;;;;4993964;28;20586;-58
2021/07/30 03:02:04;;;;;;;6.37;5.77;;;18.60;99.90;;;;;;4997299;28;20210;-58
2021/07/30 03:04:29;;;;;;;6.83;5.83;;;18.60;99.90;;;;;;4997349;28;20235;-54
2021/07/30 03:06:55;;;;;;;7.87;5.73;;;18.70;99.90;;;;;;4997297;28;20175;-59
2021/07/30 03:09:20;;;;;;;5.50;5.00;;;18.60;99.90;;;;;;4997208;28;20197;-55
2021/07/30 03:11:46;;;;;;;6.40;5.80;;;18.60;99.90;;;;;;4996803;28;20589;-57
2021/07/30 03:14:11;;;;;;;6.50;5.40;;;18.50;99.90;;;;;;4996927;28;20213;-59
2021/07/30 03:16:36;;;;;;;6.63;5.97;;;18.50;99.90;;;;;;4997027;28;20185;-53
2021/07/30 03:19:02;;;;;;;5.87;5.20;;;18.50;99.90;;;;;;4997105;28;20194;-59
2021/07/30 03:21:28;;;;;;;6.90;6.03;;;18.50;99.90;;;;;;4996786;28;20179;-55
2021/07/30 03:23:54;;;;;;;6.30;5.70;;;18.50;99.90;;;;;;4996920;28;20194;-53
2021/07/30 03:26:20;;;;;;;6.27;5.23;;;18.50;99.90;;;;;;4997083;28;20182;-55
2021/07/30 03:28:48;;;;;;;6.03;5.43;;;18.40;99.90;;;;;;4996731;28;20198;-53
2021/07/30 03:31:13;;;;;;;5.80;5.20;;;18.40;99.90;;;;;;4996726;28;20662;-55
2021/07/30 03:33:39;;;;;;;6.90;5.20;;;18.40;99.90;;;;;;4996489;28;20252;-59
2021/07/30 03:36:04;;;;;;;6.40;5.70;;;18.50;99.90;;;;;;4996840;28;20623;-58
2021/07/30 03:38:30;;;;;;;6.80;5.40;;;18.40;99.90;;;;;;4996805;28;20209;-55
2021/07/30 03:40:55;;;;;;;6.43;5.83;;;18.40;99.90;;;;;;4997420;28;20504;-56
2021/07/30 03:43:21;;;;;;;6.73;5.40;;;18.60;99.90;;;;;;4996754;28;20255;-53
2021/07/30 03:45:46;;;;;;;5.77;5.27;;;18.40;99.90;;;;;;4995161;28;20197;-52
2021/07/30 03:48:12;;;;;;;6.13;5.53;;;18.30;99.90;;;;;;4996809;28;20222;-54
2021/07/30 03:50:38;;;;;;;7.23;5.60;;;18.60;99.90;;;;;;4996752;28;20273;-55
2021/07/30 03:53:04;;;;;;;6.43;5.43;;;18.20;99.90;;;;;;4995996;28;20621;-59
2021/07/30 03:55:32;;;;;;;6.43;5.83;;;18.20;99.90;;;;;;4996556;28;20182;-55
2021/07/30 03:57:58;;;;;;;7.67;6.97;;;18.00;99.90;;;;;;4996392;28;20543;-54
2021/07/30 04:00:24;;;;;;;6.63;6.03;;;17.80;99.90;;;;;;4996464;28;20619;-55
2021/07/30 04:02:49;;;;;;;7.17;6.47;;;17.80;99.90;;;;;;4996121;28;20208;-52
2021/07/30 04:05:15;;;;;;;8.70;6.67;;;17.80;99.90;;;;;;4996575;28;20176;-59
2021/07/30 04:07:40;;;;;;;7.27;6.50;;;17.90;99.90;;;;;;4996016;28;20247;-53
2021/07/30 04:10:07;;;;;;;7.90;6.23;;;18.00;99.90;;;;;;4996780;28;20167;-58
2021/07/30 04:12:32;;;;;;;8.23;7.20;;;18.10;99.90;;;;;;4994845;28;20198;-53
2021/07/30 04:14:58;;;;;;;6.90;6.20;;;18.10;99.90;;;;;;4995943;28;20206;-52
2021/07/30 04:17:23;;;;;;;7.50;5.97;;;18.20;99.90;;;;;;4996315;28;20219;-52
2021/07/30 04:19:49;;;;;;;5.87;5.37;;;18.20;99.90;;;;;;4995752;28;20278;-51
2021/07/30 04:22:14;;;;;;;5.93;5.10;;;18.30;99.90;;;;;;4995801;28;20227;-53
2021/07/30 04:24:40;;;;;;;6.77;5.60;;;18.40;99.90;;;;;;4996044;28;20201;-55
2021/07/30 04:27:07;;;;;;;5.90;5.40;;;18.50;99.90;;;;;;4995589;28;20736;-59
2021/07/30 04:29:40;;;;;;;7.23;5.40;;;18.50;99.90;;;;;;4996128;28;20202;-56
2021/07/30 04:32:10;;;;;;;5.73;5.13;;;18.50;99.90;;;;;;4995795;28;20204;-56
2021/07/30 04:34:38;;;;;;;7.33;5.20;;;18.60;99.90;;;;;;4995914;28;20265;-57
2021/07/30 04:37:04;;;;;;;5.70;5.10;;;18.60;99.90;;;;;;4995706;28;20274;-52
2021/07/30 04:39:30;;;;;;;6.97;5.43;;;18.60;99.90;;;;;;4995847;28;20233;-55
2021/07/30 04:41:55;;;;;;;6.23;5.63;;;18.60;99.90;;;;;;4995181;28;20692;-59
2021/07/30 04:44:21;;;;;;;5.73;5.13;;;18.60;99.90;;;;;;4995533;28;20299;-59
2021/07/30 04:46:47;;;;;;;6.13;5.03;;;18.60;99.90;;;;;;4995445;28;20667;-53
2021/07/30 04:49:12;;;;;;;5.17;4.67;;;18.70;99.90;;;;;;4995461;28;20537;-51
2021/07/30 04:51:38;;;;;;;6.63;5.27;;;18.70;99.90;;;;;;4995650;28;20181;-55
2021/07/30 04:54:03;;;;;;;5.97;5.37;;;18.80;99.90;;;;;;4995055;28;20286;-58
2021/07/30 04:56:29;;;;;;;6.10;5.50;;;18.90;99.90;;;;;;4995313;28;20262;-56
2021/07/30 04:58:54;;;;;;;6.60;5.20;;;19.00;99.90;;;;;;4995250;28;20223;-59
2021/07/30 05:01:20;;;;;;;5.63;5.13;;;19.20;99.90;;;;;;4995256;28;20173;-59
2021/07/30 05:03:45;;;;;;;5.70;5.20;;;19.40;99.90;;;;;;4992931;28;20215;-53
2021/07/30 05:06:19;;;;;;;5.93;5.30;;;19.50;99.90;;;;;;4989847;28;20205;-52
2021/07/30 05:08:46;;;;;;;5.70;5.10;;;19.60;99.90;;;;;;4994800;28;20660;-58
2021/07/30 05:11:12;;;;;;;5.60;5.10;;;19.80;99.90;;;;;;4988179;28;20220;-56
2021/07/30 05:13:42;;;;;;;6.70;5.50;;;19.80;99.90;;;;;;4994661;28;20207;-55
2021/07/30 05:16:10;;;;;;;5.70;5.10;;;19.90;99.90;;;;;;4990373;28;20201;-52
2021/07/30 05:18:36;;;;;;;5.60;5.00;;;20.00;99.90;;;;;;4993438;28;20181;-60
2021/07/30 05:21:06;;;;;;;6.20;5.23;;;20.00;99.90;;;;;;4994115;28;20220;-55
2021/07/30 05:23:32;;;;;;;5.27;4.67;;;20.10;99.90;;;;;;4993635;28;20203;-59
2021/07/30 05:25:58;;;;;;;6.17;5.30;;;20.10;99.90;;;;;;4987461;28;20181;-53
2021/07/30 05:28:23;;;;;;;5.53;5.03;;;20.20;99.90;;;;;;4989618;28;20181;-54
2021/07/30 05:30:49;;;;;;;9.77;8.13;;;20.20;99.90;;;;;;4992516;28;20553;-58
2021/07/30 05:33:14;;;;;;;9.00;8.20;;;20.20;99.90;;;;;;4974994;28;20570;-57
2021/07/30 05:35:40;;;;;;;8.60;7.70;;;20.00;99.90;;;;;;4974127;28;20166;-59
2021/07/30 05:38:05;;;;;;;6.60;5.73;;;20.00;99.90;;;;;;4975278;28;20170;-53
2021/07/30 05:40:31;;;;;;;5.97;5.37;;;20.00;99.90;;;;;;4974966;28;20274;-51
2021/07/30 05:42:56;;;;;;;6.67;5.63;;;19.90;99.90;;;;;;4974962;28;20558;-59
2021/07/30 05:45:22;;;;;;;7.97;7.07;;;19.90;99.90;;;;;;4975300;28;20166;-60
2021/07/30 05:47:48;;;;;;;8.53;7.70;;;20.00;99.90;;;;;;4976600;28;20626;-58
2021/07/30 05:50:14;;;;;;;8.63;7.00;;;20.10;99.90;;;;;;4986245;28;20173;-51
2021/07/30 05:52:40;;;;;;;6.33;5.63;;;20.20;99.90;;;;;;4974724;28;20209;-56
2021/07/30 05:55:06;;;;;;;5.80;5.23;;;20.30;99.90;;;;;;4988575;28;20205;-53
2021/07/30 05:57:33;;;;;;;6.47;5.10;;;20.20;99.90;;;;;;4994288;28;20183;-57
2021/07/30 06:00:06;;;;;;;5.43;4.93;;;20.30;99.90;;;;;;4995057;28;20261;-54
2021/07/30 06:02:31;;;;;;;8.13;6.73;;;20.50;99.90;;;;;;4993581;28;20581;-52
2021/07/30 06:04:57;;;;;;;8.90;8.10;;;20.70;99.90;;;;;;4993719;28;20629;-57
2021/07/30 06:07:22;;;;;;;9.23;8.33;;;20.70;99.90;;;;;;4989953;28;20525;-59
2021/07/30 06:09:48;;;;;;;8.57;7.67;;;20.70;99.90;;;;;;4990709;28;20597;-56
2021/07/30 06:12:13;;;;;;;8.90;8.00;;;20.70;99.90;;;;;;4986757;28;20192;-52
2021/07/30 06:14:39;;;;;;;7.97;7.17;;;20.70;99.90;;;;;;5012301;28;20213;-50
2021/07/30 06:17:04;;;;;;;9.97;9.00;;;20.80;99.90;;;;;;5000967;28;20200;-55
2021/07/30 06:19:30;;;;;;;8.80;7.90;;;20.90;99.90;;;;;;4986535;28;20630;-56
2021/07/30 06:21:57;;;;;;;9.43;7.77;;;21.00;99.90;;;;;;4979930;28;20201;-59
2021/07/30 06:24:23;;;;;;;8.20;7.40;;;21.10;99.90;;;;;;4992133;28;20677;-57
2021/07/30 06:26:49;;;;;;;8.47;7.67;;;21.20;99.90;;;;;;4991928;28;20186;-59
2021/07/30 06:29:14;;;;;;;8.20;7.47;;;21.30;99.90;;;;;;4994167;28;20177;-53
2021/07/30 06:31:41;;;;;;;9.33;8.43;;;21.40;99.90;;;;;;4993832;28;20256;-59
2021/07/30 06:34:07;;;;;;;9.60;8.60;;;21.30;99.90;;;;;;4976874;28;20213;-59
2021/07/30 06:36:33;;;;;;;10.43;9.43;;;21.30;99.90;;;;;;4997880;28;20261;-59
2021/07/30 06:38:58;;;;;;;8.17;7.47;;;21.10;99.90;;;;;;4998063;28;20182;-53
2021/07/30 06:41:24;;;;;;;8.00;7.23;;;20.90;99.90;;;;;;4997668;28;20630;-58
2021/07/30 06:43:50;;;;;;;8.37;7.57;;;21.00;99.90;;;;;;4997442;28;20212;-54
2021/07/30 06:46:15;;;;;;;7.87;7.17;;;21.00;99.90;;;;;;4998033;28;20187;-53
2021/07/30 06:48:41;;;;;;;7.73;7.00;;;21.20;99.90;;;;;;4997826;28;20264;-58
2021/07/30 06:51:10;;;;;;;9.82;8.90;;;21.50;99.90;;;;;;4997460;28;20181;-58
2021/07/30 06:53:36;;;;;;;9.73;7.75;;;21.40;99.90;;;;;;4995122;28;20221;-56
2021/07/30 06:56:09;;;;;;;8.63;7.68;;;21.40;99.90;;;;;;4997420;28;20189;-57
2021/07/30 06:58:34;;;;;;;8.40;7.60;;;21.40;99.90;;;;;;4997945;28;20255;-54
2021/07/30 07:01:05;;;;;;;9.18;8.32;;;21.30;99.90;;;;;;4997511;28;20306;-59
2021/07/30 07:03:31;;;;;;;7.40;6.70;;;21.30;99.90;;;;;;5003655;28;20201;-58
2021/07/30 07:05:57;;;;;;;8.20;7.40;;;21.30;99.90;;;;;;5006991;28;20646;-59
2021/07/30 07:08:23;;;;;;;8.30;7.50;;;21.40;99.90;;;;;;5004689;28;20196;-56
2021/07/30 07:10:48;;;;;;;7.83;7.03;;;21.50;99.90;;;;;;5005822;28;20648;-59
2021/07/30 07:13:16;;;;;;;7.70;7.00;;;21.70;99.90;;;;;;5006641;28;20209;-55
2021/07/30 07:15:45;;;;;;;8.45;7.65;;;21.80;99.90;;;;;;5007730;28;20170;-53
2021/07/30 07:18:11;;;;;;;8.57;7.18;;;22.00;99.90;;;;;;5007454;28;20174;-59
2021/07/30 07:20:38;;;;;;;8.27;7.47;;;22.00;99.90;;;;;;5006134;28;20199;-58
2021/07/30 07:23:03;;;;;;;8.40;7.60;;;22.00;99.90;;;;;;5004787;28;20241;-55
2021/07/30 07:25:29;;;;;;;7.72;6.93;;;22.10;99.90;;;;;;5004602;28;20180;-51
2021/07/30 07:27:55;;;;;;;7.85;7.05;;;22.10;99.90;;;;;;5004243;28;20661;-55
2021/07/30 07:30:20;;;;;;;11.52;8.43;;;22.30;99.90;;;;;;5006541;28;20199;-54
2021/07/30 07:32:47;;;;;;;9.02;8.23;;;22.20;99.90;;;;;;5005109;28;20538;-59
2021/07/30 07:35:13;;;;;;;9.25;8.45;;;22.20;99.90;;;;;;5005228;28;20178;-59
2021/07/30 07:37:39;;;;;;;10.35;8.65;;;22.30;99.90;;;;;;5006842;28;20172;-56
2021/07/30 07:40:07;;;;;;;8.63;7.82;;;22.30;99.90;;;;;;4997043;28;20203;-58
2021/07/30 07:42:32;;;;;;;8.57;7.70;;;22.30;99.90;;;;;;4984715;28;20178;-57
2021/07/30 07:44:58;;;;;;;10.45;7.47;;;22.40;99.90;;;;;;5005264;28;20179;-59
2021/07/30 07:47:23;;;;;;;8.50;7.70;;;22.60;99.90;;;;;;5006338;28;20558;-58
2021/07/30 07:49:49;;;;;;;8.80;8.05;;;22.70;99.90;;;;;;5004030;28;20181;-59
2021/07/30 07:52:15;;;;;;;7.80;7.00;;;22.70;99.90;;;;;;5006023;28;20640;-59
2021/07/30 07:54:40;;;;;;;8.40;7.70;;;22.90;99.90;;;;;;5005496;28;20201;-58
2021/07/30 07:57:06;;;;;;;8.43;7.63;;;23.10;99.90;;;;;;5004328;28;20248;-59
2021/07/30 07:59:36;;;;;;;8.07;7.28;;;23.10;99.90;;;;;;5006611;28;20655;-58
2021/07/30 08:02:06;;;;;;;7.43;6.22;;;23.30;99.90;;;;;;5005673;28;20213;-56
2021/07/30 08:04:32;;;;;;;8.27;7.47;;;23.60;99.90;;;;;;5003687;28;20221;-56
2021/07/30 08:07:00;;;;;;;7.53;6.80;;;23.60;99.90;;;;;;5005577;28;20201;-55
2021/07/30 08:09:25;;;;;;;7.68;6.97;;;23.60;99.90;;;;;;5005834;28;20609;-59
2021/07/30 08:11:51;;;;;;;7.43;6.72;;;23.60;99.90;;;;;;5004443;28;20641;-56
2021/07/30 08:14:16;;;;;;;7.72;6.93;;;23.70;99.90;;;;;;5004800;28;20208;-57
2021/07/30 08:16:42;;;;;;;7.00;6.30;;;23.70;99.90;;;;;;5004032;28;20173;-58
2021/07/30 08:19:08;;;;;;;7.22;6.53;;;24.10;99.90;;;;;;5004881;28;20216;-56
2021/07/30 08:21:33;;;;;;;7.25;6.47;;;24.30;99.90;;;;;;5004295;28;20169;-57
2021/07/30 08:23:59;;;;;;;7.60;6.50;;;24.40;99.90;;;;;;5005501;28;20192;-59
2021/07/30 08:26:24;;;;;;;7.32;6.63;;;24.60;99.90;;;;;;5005504;28;20174;-60
2021/07/30 08:28:50;;;;;;;8.10;7.30;;;24.60;99.90;;;;;;5004159;28;20188;-59
2021/07/30 08:31:26;;;;;;;10.80;7.47;;;24.60;99.90;;;;;;5006055;28;20175;-59
2021/07/30 08:33:52;;;;;;;11.82;7.78;;;24.60;99.90;;;;;;4998223;28;20190;-53
2021/07/30 08:36:17;;;;;;;8.52;7.70;;;24.30;99.90;;;;;;4995862;28;20170;-57
2021/07/30 08:38:43;;;;;;;8.65;7.90;;;24.40;99.90;;;;;;4996019;28;20217;-59
2021/07/30 08:41:08;;;;;;;8.82;8.02;;;24.30;99.90;;;;;;4995953;28;20178;-57
2021/07/30 08:43:34;;;;;;;8.57;7.78;;;24.20;99.90;;;;;;4995041;28;20690;-60
2021/07/30 08:46:00;;;;;;;8.50;7.20;;;24.30;99.90;;;;;;4995753;28;20185;-56
2021/07/30 08:48:26;;;;;;;8.18;7.38;;;24.50;99.90;;;;;;4995506;28;20178;-56
2021/07/30 08:50:51;;;;;;;8.38;6.70;;;24.50;99.90;;;;;;4995838;28;20180;-57
2021/07/30 08:53:26;;;;;;;7.68;6.97;;;24.40;99.90;;;;;;4995315;28;20236;-57
2021/07/30 08:55:52;;;;;;;7.53;6.72;;;24.70;99.90;;;;;;4995554;28;20181;-54
2021/07/30 08:58:18;;;;;;;8.15;7.05;;;24.60;99.90;;;;;;4994935;28;20652;-60
2021/07/30 09:00:44;;;;;;;7.53;6.82;;;24.70;99.90;;;;;;4995679;28;20248;-52
2021/07/30 09:03:09;;;;;;;8.25;7.45;;;24.80;99.90;;;;;;4995392;28;20313;-50
2021/07/30 09:05:35;;;;;;;7.85;7.15;;;24.70;99.90;;;;;;4995683;28;20223;-53
2021/07/30 09:08:08;;;;;;;8.30;7.60;;;24.80;99.90;;;;;;4995491;28;20243;-50
2021/07/30 09:10:37;;;;;;;7.75;6.97;;;24.70;99.90;;;;;;4995535;28;20216;-58
2021/07/30 09:13:17;;;;;;;6.57;5.95;;;24.80;99.90;;;;;;4995025;28;20193;-60
2021/07/30 09:15:45;;;;;;;6.68;6.07;;;25.00;99.90;;;;;;4994757;28;20565;-59
2021/07/30 09:18:28;;;;;;;6.53;5.93;;;25.00;99.90;;;;;;4995008;28;20174;-57
2021/07/30 09:20:54;;;;;;;6.20;5.70;;;25.10;99.90;;;;;;4995348;28;20475;-53
2021/07/30 09:23:19;;;;;;;6.10;5.60;;;25.20;99.90;;;;;;4994601;28;20301;-59
2021/07/30 09:25:45;;;;;;;5.00;4.47;;;25.50;99.90;;;;;;4995039;28;20256;-59
2021/07/30 09:28:11;;;;;;;5.35;4.85;;;25.50;99.90;;;;;;4994688;28;20634;-52
2021/07/30 09:30:37;;;;;;;5.07;4.57;;;25.40;99.90;;;;;;4994799;28;20184;-56
2021/07/30 09:33:04;;;;;;;4.60;4.20;;;25.20;99.90;;;;;;4994703;28;20208;-54
2021/07/30 09:35:29;;;;;;;4.85;4.40;;;25.30;99.90;;;;;;4995325;28;20224;-59
2021/07/30 09:38:17;;;;;;;5.07;4.50;;;25.30;99.90;;;;;;4994473;28;20193;-52
2021/07/30 09:40:42;;;;;;;6.65;5.95;;;25.40;99.90;;;;;;4994496;28;20204;-59
2021/07/30 09:43:25;;;;;;;6.50;5.25;;;25.50;99.90;;;;;;4993858;28;20249;-54
2021/07/30 09:46:10;;;;;;;5.65;4.72;;;25.70;99.90;;;;;;4994455;28;20261;-58
2021/07/30 09:48:52;;;;;;;5.95;5.40;;;26.10;99.90;;;;;;4994177;28;20193;-58
2021/07/30 09:51:18;;;;;;;5.85;5.32;;;26.40;99.90;;;;;;4994577;28;20173;-53
2021/07/30 09:53:45;;;;;;;5.93;5.35;;;26.30;99.90;;;;;;4994245;28;20212;-56
2021/07/30 09:56:13;;;;;;;6.22;5.63;;;26.30;99.90;;;;;;4995199;28;20264;-55
2021/07/30 09:58:40;;;;;;;5.20;4.72;;;26.30;99.90;;;;;;4994211;28;20166;-51
2021/07/30 10:01:06;;;;;;;4.95;4.50;;;26.20;99.90;;;;;;4994164;28;20185;-55
2021/07/30 10:03:35;;;;;;;5.28;4.82;;;26.20;99.90;;;;;;4994214;28;20197;-51
2021/07/30 10:06:00;;;;;;;5.85;5.30;;;26.50;99.90;;;;;;4994438;28;20192;-53
2021/07/30 10:08:26;;;;;;;6.00;5.05;;;26.90;99.90;;;;;;4994267;28;20205;-57
2021/07/30 10:10:52;;;;;;;5.65;5.15;;;27.30;99.90;;;;;;4996559;28;20181;-59
2021/07/30 10:13:24;;;;;;;5.30;4.88;;;27.10;99.90;;;;;;4997600;28;20241;-57
2021/07/30 10:15:50;;;;;;;6.72;5.10;;;27.20;99.90;;;;;;4998725;28;20158;-53
2021/07/30 10:18:19;;;;;;;5.53;5.03;;;27.40;99.90;;;;;;4998600;28;20236;-58
2021/07/30 10:20:46;;;;;;;6.45;5.85;;;27.60;99.90;;;;;;4998389;28;20209;-60
2021/07/30 10:23:16;;;;;;;6.85;5.68;;;27.70;99.90;;;;;;4998002;28;20189;-58
2021/07/30 10:25:50;;;;;;;6.25;5.72;;;27.90;99.90;;;;;;4998367;28;20165;-60
2021/07/30 10:28:21;;;;;;;5.82;5.10;;;27.90;99.90;;;;;;4997946;28;20185;-56
2021/07/30 10:31:05;;;;;;;5.90;5.38;;;28.00;99.90;;;;;;4998337;28;20174;-52
2021/07/30 10:33:30;;;;;;;5.70;5.20;;;28.00;99.90;;;;;;4997735;28;20211;-58
2021/07/30 10:36:01;;;;;;;5.60;5.10;;;28.20;99.90;;;;;;4997880;28;20260;-52
2021/07/30 10:38:27;;;;;;;6.00;5.40;;;28.40;99.90;;;;;;4997737;28;20183;-52
2021/07/30 10:41:13;;;;;;;6.10;5.43;;;28.50;99.90;;;;;;4998235;28;20153;-53
2021/07/30 10:43:50;;;;;;;6.50;4.80;;;28.30;99.90;;;;;;4997749;28;20213;-59
2021/07/30 10:46:18;;;;;;;8.25;5.28;;;28.20;99.90;;;;;;4997673;28;20173;-53
2021/07/30 10:48:44;;;;;;;5.95;5.45;;;27.80;99.90;;;;;;4997797;28;20177;-60
2021/07/30 10:51:22;;;;;;;5.72;5.00;;;27.90;99.90;;;;;;4997830;28;20212;-60
2021/07/30 10:54:06;;;;;;;5.80;5.30;;;28.00;99.90;;;;;;4997257;28;20209;-60
2021/07/30 10:56:31;;;;;;;8.63;5.30;;;28.20;99.90;;;;;;4997658;28;20177;-55
2021/07/30 10:59:00;;;;;;;5.35;4.85;;;28.40;99.90;;;;;;4997397;28;20652;-58
2021/07/30 11:01:29;;;;;;;5.95;5.35;;;28.50;99.90;;;;;;4997627;28;20986;-54
2021/07/30 11:03:56;;;;;;;5.45;4.95;;;28.50;99.90;;;;;;4997721;28;20244;-60
2021/07/30 11:06:26;;;;;;;5.63;5.13;;;28.40;99.90;;;;;;4997790;28;20193;-50
2021/07/30 11:11:39;;;;;;;5.40;4.90;;;28.00;99.90;;;;;;4997089;28;20711;-53
2021/07/30 11:14:30;;;;;;;5.72;5.13;;;27.80;99.90;;;;;;4997248;28;20614;-58
2021/07/30 11:17:05;;;;;;;7.65;5.90;;;27.90;99.90;;;;;;4997404;28;20630;-55
2021/07/30 11:19:48;;;;;;;5.57;5.07;;;28.00;99.90;;;;;;4996662;28;20192;-51
2021/07/30 11:22:19;;;;;;;5.15;4.75;;;28.10;99.90;;;;;;4996759;28;20162;-60
2021/07/30 11:24:49;;;;;;;5.65;5.00;;;28.30;99.90;;;;;;4997178;28;20177;-60
2021/07/30 11:27:17;;;;;;;7.38;5.00;;;28.60;99.90;;;;;;4997104;28;20181;-53
2021/07/30 11:29:44;;;;;;;5.00;4.60;;;28.90;99.90;;;;;;4996727;28;20189;-54
2021/07/30 11:32:12;;;;;;;6.00;5.40;;;29.00;99.90;;;;;;4996950;28;20181;-54
2021/07/30 11:34:40;;;;;;;6.38;4.97;;;29.10;99.90;;;;;;4996653;28;20201;-60
2021/07/30 11:37:07;;;;;;;9.82;6.70;;;29.10;99.90;;;;;;4996935;28;20684;-58
2021/07/30 11:39:38;;;;;;;5.30;4.90;;;29.50;99.90;;;;;;4997430;28;20177;-60
2021/07/30 11:42:04;;;;;;;5.47;4.97;;;29.60;99.90;;;;;;4996435;28;20150;-60
2021/07/30 11:44:47;;;;;;;5.38;4.88;;;29.60;99.90;;;;;;4996325;28;20193;-60
2021/07/30 11:47:13;;;;;;;6.68;5.28;;;29.40;99.90;;;;;;4996526;28;20712;-60
2021/07/30 11:49:40;;;;;;;4.93;4.53;;;29.30;99.90;;;;;;4996558;28;20235;-54
2021/07/30 11:52:08;;;;;;;5.97;5.47;;;29.40;99.90;;;;;;4996023;28;20197;-56
2021/07/30 11:54:34;;;;;;;5.35;4.70;;;29.30;99.90;;;;;;4996872;28;20212;-60
2021/07/30 11:57:00;;;;;;;5.55;5.05;;;29.50;99.90;;;;;;4996612;28;20177;-60
2021/07/30 11:59:41;;;;;;;6.45;5.18;;;29.90;99.90;;;;;;4996356;28;20169;-53
2021/07/30 12:02:06;;;;;;;5.65;5.05;;;30.20;99.90;;;;;;4996040;28;20189;-56
2021/07/30 12:04:33;;;;;;;5.55;5.05;;;30.70;99.90;;;;;;4996402;28;20200;-59
2021/07/30 12:07:35;;;;;;;6.25;5.10;;;30.90;99.90;;;;;;4996204;28;20533;-58
2021/07/30 12:10:02;;;;;;;5.43;4.93;;;30.80;99.90;;;;;;4936045;29;20199;-56
2021/07/30 12:12:28;;;;;;;5.25;4.70;;;30.50;99.90;;;;;;4935745;29;20671;-55
2021/07/30 12:14:54;;;;;;;5.90;5.35;;;30.30;99.90;;;;;;4936052;29;20219;-57
2021/07/30 12:17:21;;;;;;;5.38;4.88;;;30.20;99.90;;;;;;4936126;29;20305;-52
2021/07/30 12:20:05;;;;;;;5.38;4.88;;;30.10;99.90;;;;;;4936148;29;20191;-53
2021/07/30 12:22:34;;;;;;;8.25;5.10;;;30.20;99.90;;;;;;4919779;29;20319;-56
2021/07/30 12:25:00;;;;;;;5.30;4.90;;;30.20;99.90;;;;;;4936070;29;20167;-57
2021/07/30 12:27:25;;;;;;;5.13;4.72;;;29.90;99.90;;;;;;4936041;29;20190;-60
2021/07/30 12:29:51;;;;;;;6.85;5.20;;;29.80;99.90;;;;;;4935745;29;20509;-57
2021/07/30 12:32:22;;;;;;;5.82;5.18;;;30.20;99.90;;;;;;4934755;29;20572;-60
2021/07/30 12:34:56;;;;;;;5.45;4.80;;;30.40;99.90;;;;;;4935976;29;20235;-54
2021/07/30 12:37:22;;;;;;;4.70;4.40;;;30.90;99.90;;;;;;4935982;29;20524;-58
2021/07/30 12:39:50;;;;;;;5.05;4.65;;;31.10;99.90;;;;;;4935255;29;20699;-60
2021/07/30 12:42:17;;;;;;;5.22;4.75;;;31.10;99.90;;;;;;4935581;29;20713;-56
2021/07/30 12:45:09;;;;;;;5.18;4.78;;;30.90;99.90;;;;;;4935060;29;20207;-60
2021/07/30 12:47:54;;;;;;;5.18;4.68;;;31.00;99.90;;;;;;4995881;28;20173;-60
2021/07/30 12:50:28;;;;;;;4.68;4.25;;;30.90;99.90;;;;;;4995013;28;20252;-53
2021/07/30 12:53:10;;;;;;;4.80;4.40;;;31.20;99.90;;;;;;4995599;28;20205;-59